Current Observation

FTSO31 AGGG 272330
TAF AGGH 272330Z 2800/2824 09015KT 9999 SCT019 SCT030
PROB40 INTER 2803/2807 5000 TSSH SCT017 FEW018CB BKN026
T 31 31 28 26 Q 1011 1009 1008 1010=

TAF AGGM 272330Z 2800/2824 09010KT 9999 –SHRA SCT018 BKN100
INTER 2800/2807 5000 TSSH SCT017 FEW018CB BKN026
Q 1011 1009 1008 1010=

TAF AGGN 272330Z 2800/2824 11015KT 9999 –SHRA SCT018 BKN100
INTER 2800/2807 5000 TSSH SCT017 FEW018CB BKN026
Q 1011 1009 1008 1010=

TAF AGGC 272330Z 2800/2824 14010KT 9999 –SHRA SCT018 BKN100
INTER 2800/2807 5000 TSSH SCT017 FEW018CB BKN026
Q 1010 1008 1007 1009=
 
TAF AGGA 272330Z 2800/2824 16012KT 9999 –SHRA SCT019 SCT030
INTER 2801/2807 5000 TSSH SCT017 FEW018CB BKN026
Q 1011 1009 1008 1010=

TAF AGGK 272330Z 2800/2824 11015KT 9999 –SHRA SCT018 BKN100
INTER 2800/2807 5000 TSSH SCT017 FEW018CB BKN026
Q 1011 1009 1008 1010=
                        
TAF AGGL 272330Z 2800/2824 11015KT 9999 –SHRA SCT018 BKN100
INTER 2800/2807 5000 TSSH SCT017 FEW018CB BKN026
Q 1012 1010 1009 1011=

TAF AGGR 272330Z 2800/2824 14016KT 9999 –SHRA SCT019 SCT030
Q 1013 1011 1010 1012=

Last modified on Sunday, 28 May 2017 10:57

Weather Outlook

Support and Docs

Modern Design
Go to top